WetterOnline ( https://www.wetteronline.ch )

Wetter aktuell Wunsiedel

Aktuelles Wetter: Wunsiedel-Schönbrunn (622m)

6-stündlich | Neueste Meldungen
Ortszeit Temperatur Wetter
Fr, 23.02. 1:00 7.5° C leichter Regen
Do, 22.02. 19:00 7.3° C leichter Regen
Do, 22.02. 13:00 7.0° C leichter Regen
Do, 22.02. 7:00 5.2° C leichter Regen
Do, 22.02. 1:00 6.4° C leichter Regen
Mi, 21.02. 19:00 6.8° C bedeckt
Mi, 21.02. 13:00 7.6° C wolkig
Mi, 21.02. 7:00 4.3° C bewölkt
Ortszeit Temperatur Wetter
Fr, 23.02. 6:30 3.3° C leichter Regen
Fr, 23.02. 6:20 3.3° C leichter Regen
Fr, 23.02. 6:10 3.8° C bewölkt
Fr, 23.02. 6:00 4.0° C bewölkt
Fr, 23.02. 5:50 4.0° C bewölkt
Fr, 23.02. 5:40 4.1° C bewölkt
Fr, 23.02. 5:30 4.4° C bewölkt
Fr, 23.02. 5:00 4.5° C bewölkt
Fr, 23.02. 4:30 4.7° C bewölkt
Fr, 23.02. 4:00 5.1° C bewölkt
Fr, 23.02. 3:30 5.7° C wolkig
Ortszeit Relative Feuchte Sichtweite
Fr, 23.02. 1:00 80% 23 km
Do, 22.02. 19:00 97% 11 km
Do, 22.02. 13:00 97% 2.6 km
Do, 22.02. 7:00 97% 9 km
Do, 22.02. 1:00 71% 24 km
Mi, 21.02. 19:00 66% 45 km
Mi, 21.02. 13:00 72% 50 km
Mi, 21.02. 7:00 89% 24 km
Ortszeit Relative Feuchte Sichtweite
Fr, 23.02. 6:30 83% -
Fr, 23.02. 6:20 83% -
Fr, 23.02. 6:10 78% -
Fr, 23.02. 6:00 77% 60 km
Fr, 23.02. 5:50 77% -
Fr, 23.02. 5:40 78% -
Fr, 23.02. 5:30 77% 60 km
Fr, 23.02. 5:00 76% >70 km
Fr, 23.02. 4:30 76% 65 km
Fr, 23.02. 4:00 74% >70 km
Fr, 23.02. 3:30 80% >70 km
Ortszeit Niederschlagsmenge Niederschlagsart
Fr, 23.02. 1:00 8 l/m2 in 6 Std. Regen
Do, 22.02. 19:00 14 l/m2 in 12 Std. Regen
Do, 22.02. 13:00 10 l/m2 in 6 Std. Regen
Do, 22.02. 7:00 5 l/m2 in 12 Std. Regen
Do, 22.02. 1:00 0.1 l/m2 in 6 Std. Regen
Mi, 21.02. 19:00 0.0 l/m2 in 12 Std. -
Mi, 21.02. 13:00 0.0 l/m2 in 6 Std. -
Mi, 21.02. 7:00 0.0 l/m2 in 12 Std. -
Ortszeit Niederschlagsmenge Niederschlagsart
Fr, 23.02. 6:30 <0.05 l/m2 in 30 Min -
Fr, 23.02. 6:20 keine Meldung -
Fr, 23.02. 6:10 keine Meldung -
Fr, 23.02. 6:00 <0.05 l/m2 in 1 Std. Regen
Fr, 23.02. 5:50 keine Meldung -
Fr, 23.02. 5:40 keine Meldung -
Fr, 23.02. 5:30 <0.05 l/m2 in 30 Min Schneeregen
Fr, 23.02. 5:00 0.0 l/m2 in 1 Std. -
Fr, 23.02. 4:30 0.0 l/m2 in 30 Min -
Fr, 23.02. 4:00 0.0 l/m2 in 1 Std. Regen
Fr, 23.02. 3:30 0.0 l/m2 in 30 Min -
Ortszeit Stärke Spitze Richtung
km/h Bft. km/h Grad Sektor
Fr, 23.02. 1:00 31 5 59 240° SW
Do, 22.02. 19:00 36 5 54 200° S
Do, 22.02. 13:00 22 4 47 210° SW
Do, 22.02. 7:00 28 4 52 210° SW
Do, 22.02. 1:00 24 4 41 210° SW
Mi, 21.02. 19:00 7 2 36 230° SW
Mi, 21.02. 13:00 22 4 47 230° SW
Mi, 21.02. 7:00 17 3 37 240° SW
Ortszeit Stärke Spitze Richtung
km/h Bft. km/h Grad Sektor
Fr, 23.02. 6:30 24 4 44 240° SW
Fr, 23.02. 6:20 24 4 - 240° SW
Fr, 23.02. 6:10 25 4 - 240° SW
Fr, 23.02. 6:00 25 4 40 230° SW
Fr, 23.02. 5:50 25 4 - 230° SW
Fr, 23.02. 5:40 24 4 - 240° SW
Fr, 23.02. 5:30 25 4 36 240° SW
Fr, 23.02. 5:00 18 3 50 250° W
Fr, 23.02. 4:30 24 4 50 240° SW
Fr, 23.02. 4:00 31 5 54 240° SW
Fr, 23.02. 3:30 26 4 43 240° SW
Ortszeit Untergrenze Bedeckung Gattung
total tief tief mittel hoch
Fr, 23.02. 1:00 630 m 7/8 7/8 - - -
Do, 22.02. 19:00 210 m 8/8 8/8 - - -
Do, 22.02. 13:00 180 m 8/8 8/8 - - -
Do, 22.02. 7:00 210 m 8/8 8/8 - - -
Do, 22.02. 1:00 1290 m 8/8 8/8 - - -
Mi, 21.02. 19:00 3000 m 8/8 8/8 - - -
Mi, 21.02. 13:00 6600 m 7/8 3/8 - - -
Mi, 21.02. 7:00 270 m 7/8 7/8 - - -
Ortszeit Bedeckungsgrad in Achtel und Wolkenuntergrenze
Fr, 23.02. 6:30 4(810m) 7(1500m) 7(3600m)
Fr, 23.02. 6:20 4(810m) 7(1500m) 7(3600m)
Fr, 23.02. 6:10 7
Fr, 23.02. 6:00 3(690m) 7(1170m) 7(1410m)
Fr, 23.02. 5:50 3(690m) 7(1170m) 7(1410m)
Fr, 23.02. 5:40 7
Fr, 23.02. 5:30 3(720m) 7(1050m) 7(1470m)
Fr, 23.02. 5:00 2(900m) 7(1140m) 8(4200m)
Fr, 23.02. 4:30 4(720m) 7(1080m) 7(1410m)
Fr, 23.02. 4:00 2(690m) 4(1050m) 8(3600m)
Fr, 23.02. 3:30 4(690m) 7(3600m) 7(4500m)
Ortszeit Luftdruck NN (hPa) Tendenz (hPa in 3 Std.)
Fr, 23.02. 1:00 992 + 0,9
Do, 22.02. 19:00 992 - 2,2
Do, 22.02. 13:00 998 - 2,3
Do, 22.02. 7:00 1003 - 2,6
Do, 22.02. 1:00 1010 - 3,3
Mi, 21.02. 19:00 1015 - 2,4
Mi, 21.02. 13:00 1020 - 1,5
Mi, 21.02. 7:00 1023 - 1,2
Ortszeit Luftdruck NN (hPa) Tendenz (hPa in 3 Std.)
Fr, 23.02. 6:30 998 + 2,1
Fr, 23.02. 6:20 998 keine Meldung
Fr, 23.02. 6:10 998 keine Meldung
Fr, 23.02. 6:00 997 + 2,2
Fr, 23.02. 5:50 997 keine Meldung
Fr, 23.02. 5:40 997 keine Meldung
Fr, 23.02. 5:30 997 + 2,4
Fr, 23.02. 5:00 997 + 2,3
Fr, 23.02. 4:30 997 + 3,1
Fr, 23.02. 4:00 996 + 2,6
Fr, 23.02. 3:30 995 + 2,2
Ortszeit Schneehöhe (cm)
Fr, 23.02. 1:00 0
Do, 22.02. 19:00 0
Do, 22.02. 13:00 0
Do, 22.02. 7:00 0
Do, 22.02. 1:00 0
Mi, 21.02. 19:00 0
Mi, 21.02. 13:00 0
Mi, 21.02. 7:00 0
Ortszeit Schneehöhe (cm)
Fr, 23.02. 6:30 0
Fr, 23.02. 6:20 0
Fr, 23.02. 6:10 -
Fr, 23.02. 6:00 0
Fr, 23.02. 5:50 0
Fr, 23.02. 5:40 -
Fr, 23.02. 5:30 0
Fr, 23.02. 5:00 0
Fr, 23.02. 4:30 0
Fr, 23.02. 4:00 0
Fr, 23.02. 3:30 0
Link zu dieser Seite / Seite empfehlen

Das Wetter in ...